createdAt,value
2019-01-13T00:00:39.376Z,16.70
2019-01-13T00:03:06.973Z,14.80
2019-01-13T00:05:34.541Z,14.93
2019-01-13T00:08:02.144Z,13.20
2019-01-13T00:10:29.717Z,15.00
2019-01-13T00:12:58.062Z,12.57
2019-01-13T00:15:25.666Z,16.20
2019-01-13T00:17:54.009Z,14.40
2019-01-13T00:20:21.626Z,18.23
2019-01-13T00:22:49.195Z,18.63
2019-01-13T00:25:16.768Z,14.33
2019-01-13T00:27:44.363Z,14.53
2019-01-13T00:30:19.035Z,16.17
2019-01-13T00:32:43.070Z,17.70
2019-01-13T00:35:10.639Z,15.03
2019-01-13T00:37:38.216Z,14.57
2019-01-13T00:40:05.822Z,13.10
2019-01-13T00:42:33.391Z,12.40
2019-01-13T00:45:01.001Z,12.50
2019-01-13T00:47:28.882Z,12.87
2019-01-13T00:49:56.457Z,12.53
2019-01-13T00:52:24.052Z,10.10
2019-01-13T00:54:51.628Z,12.30
2019-01-13T00:57:19.233Z,11.53
2019-01-13T00:59:47.138Z,10.10
2019-01-13T01:02:14.721Z,11.43
2019-01-13T01:04:43.093Z,10.30
2019-01-13T01:07:10.663Z,9.80
2019-01-13T01:09:38.736Z,9.77
2019-01-13T01:12:06.307Z,12.20
2019-01-13T01:14:33.879Z,9.63
2019-01-13T01:17:02.521Z,10.60
2019-01-13T01:19:30.093Z,10.17
2019-01-13T01:21:57.694Z,8.97
2019-01-13T01:24:26.028Z,8.53
2019-01-13T01:26:53.602Z,9.97
2019-01-13T01:29:21.192Z,9.03
2019-01-13T01:31:49.531Z,11.60
2019-01-13T01:34:17.140Z,11.57
2019-01-13T01:36:44.712Z,10.20
2019-01-13T01:39:12.284Z,10.07
2019-01-13T01:41:39.881Z,9.90
2019-01-13T01:44:07.457Z,13.70
2019-01-13T01:46:35.090Z,12.77
2019-01-13T01:49:03.433Z,10.97
2019-01-13T01:51:31.776Z,11.60
2019-01-13T01:53:59.372Z,12.87
2019-01-13T01:56:27.709Z,13.73
2019-01-13T01:58:55.325Z,14.00
2019-01-13T02:01:22.892Z,15.00
2019-01-13T02:03:50.484Z,17.10
2019-01-13T02:06:18.098Z,13.43
2019-01-13T02:08:45.635Z,14.40
2019-01-13T02:11:14.743Z,15.47
2019-01-13T02:13:43.084Z,14.53
2019-01-13T02:16:10.659Z,10.83
2019-01-13T02:18:38.254Z,12.13
2019-01-13T02:21:06.188Z,11.20
2019-01-13T02:23:33.817Z,12.27
2019-01-13T02:26:01.402Z,12.70
2019-01-13T02:28:28.972Z,10.73
2019-01-13T02:30:56.564Z,7.77
2019-01-13T02:33:24.900Z,8.57
2019-01-13T02:35:52.769Z,11.33
2019-01-13T02:38:20.341Z,8.57
2019-01-13T02:40:47.921Z,10.00
2019-01-13T02:43:15.515Z,13.30
2019-01-13T02:45:43.086Z,10.85
2019-01-13T02:48:10.687Z,9.80
2019-01-13T02:50:38.260Z,11.70
2019-01-13T02:53:05.829Z,7.93
2019-01-13T02:55:33.424Z,9.20
2019-01-13T02:58:00.995Z,8.27
2019-01-13T03:00:28.607Z,12.13
2019-01-13T03:02:56.168Z,9.63
2019-01-13T03:05:23.747Z,10.27
2019-01-13T03:07:51.340Z,9.47
2019-01-13T03:10:21.822Z,7.80
2019-01-13T03:12:49.439Z,8.23
2019-01-13T03:15:19.621Z,8.67
2019-01-13T03:17:44.570Z,9.87
2019-01-13T03:20:12.194Z,9.03
2019-01-13T03:22:40.522Z,6.23
2019-01-13T03:25:08.087Z,7.67
2019-01-13T03:27:35.681Z,7.37
2019-01-13T03:30:03.285Z,6.03
2019-01-13T03:32:31.628Z,5.17
2019-01-13T03:34:59.199Z,7.47
2019-01-13T03:37:26.768Z,5.70
2019-01-13T03:39:55.186Z,8.20
2019-01-13T03:42:22.748Z,5.07
2019-01-13T03:44:50.721Z,5.03
2019-01-13T03:47:18.290Z,7.93
2019-01-13T03:49:45.862Z,3.60
2019-01-13T03:52:13.456Z,3.57
2019-01-13T03:54:41.787Z,5.37
2019-01-13T03:57:10.288Z,4.40
2019-01-13T03:59:37.866Z,4.40
2019-01-13T04:02:05.433Z,4.13
2019-01-13T04:04:33.025Z,2.83
2019-01-13T04:07:00.595Z,4.47
2019-01-13T04:09:28.994Z,2.70
2019-01-13T04:11:56.572Z,3.53
2019-01-13T04:14:24.143Z,2.57
2019-01-13T04:16:51.747Z,4.57
2019-01-13T04:19:19.319Z,3.17
2019-01-13T04:21:46.924Z,2.47
2019-01-13T04:24:14.494Z,1.87
2019-01-13T04:26:42.084Z,1.80
2019-01-13T04:29:10.442Z,2.70
2019-01-13T04:31:38.006Z,3.20
2019-01-13T04:34:07.292Z,2.30
2019-01-13T04:36:34.856Z,2.93
2019-01-13T04:39:02.426Z,1.97
2019-01-13T04:41:30.019Z,1.80
2019-01-13T04:43:57.589Z,1.87
2019-01-13T04:46:25.197Z,2.70
2019-01-13T04:48:52.773Z,0.97
2019-01-13T04:51:20.346Z,1.30
2019-01-13T04:53:48.699Z,2.77
2019-01-13T04:56:16.272Z,1.63
2019-01-13T04:58:43.876Z,1.87
2019-01-13T05:01:11.451Z,1.20
2019-01-13T05:03:39.019Z,3.40
2019-01-13T05:06:06.607Z,0.73
2019-01-13T05:08:34.178Z,1.07
2019-01-13T05:11:01.803Z,0.82
2019-01-13T05:13:29.371Z,1.00
2019-01-13T05:15:56.961Z,1.00
2019-01-13T05:18:24.542Z,1.43
2019-01-13T05:20:52.881Z,0.90
2019-01-13T05:23:20.483Z,0.67
2019-01-13T05:25:48.815Z,1.17
2019-01-13T05:28:16.392Z,0.30
2019-01-13T05:30:43.977Z,1.97
2019-01-13T05:33:11.555Z,0.80
2019-01-13T05:35:39.959Z,0.60
2019-01-13T05:38:07.525Z,0.60
2019-01-13T05:40:35.119Z,0.30
2019-01-13T05:43:02.716Z,1.17
2019-01-13T05:45:30.781Z,0.53
2019-01-13T05:47:58.388Z,2.10
2019-01-13T05:50:25.953Z,0.43
2019-01-13T05:52:53.523Z,0.47
2019-01-13T05:55:21.115Z,0.30
2019-01-13T05:57:48.681Z,0.53
2019-01-13T06:00:16.281Z,0.57
2019-01-13T06:02:43.851Z,0.70
2019-01-13T06:05:11.418Z,1.10
2019-01-13T06:07:39.009Z,1.90
2019-01-13T06:10:09.509Z,0.20
2019-01-13T06:12:37.112Z,1.00
2019-01-13T06:15:04.674Z,1.53
2019-01-13T06:17:32.242Z,0.10
2019-01-13T06:20:00.102Z,1.27
2019-01-13T06:22:27.658Z,0.30
2019-01-13T06:24:55.225Z,0.30
2019-01-13T06:27:22.823Z,0.40
2019-01-13T06:29:50.392Z,0.20
2019-01-13T06:32:17.967Z,0.67
2019-01-13T06:34:45.567Z,0.67
2019-01-13T06:37:13.133Z,0.40
2019-01-13T06:39:40.706Z,0.62
2019-01-13T06:42:08.837Z,1.07
2019-01-13T06:44:36.451Z,0.10
2019-01-13T06:47:03.992Z,0.47
2019-01-13T06:49:32.186Z,0.30
2019-01-13T06:52:00.518Z,1.03
2019-01-13T06:54:28.093Z,0.77
2019-01-13T06:56:55.688Z,0.97
2019-01-13T06:59:24.024Z,0.30
2019-01-13T07:01:51.993Z,0.37
2019-01-13T07:04:19.576Z,1.37
2019-01-13T07:06:47.142Z,0.70
2019-01-13T07:09:14.767Z,0.40
2019-01-13T07:11:42.312Z,0.40
2019-01-13T07:14:09.986Z,1.33
2019-01-13T07:16:37.559Z,1.03
2019-01-13T07:19:05.135Z,0.93
2019-01-13T07:21:32.729Z,0.40
2019-01-13T07:24:01.066Z,1.10
2019-01-13T07:26:28.680Z,0.30
2019-01-13T07:28:57.020Z,0.30
2019-01-13T07:31:24.581Z,1.90
2019-01-13T07:33:52.173Z,0.50
2019-01-13T07:36:20.519Z,1.57
2019-01-13T07:38:48.118Z,1.53
2019-01-13T07:41:16.450Z,1.70
2019-01-13T07:43:44.070Z,0.57
2019-01-13T07:46:11.658Z,0.50
2019-01-13T07:48:39.235Z,0.80
2019-01-13T07:51:06.838Z,0.50
2019-01-13T07:53:35.269Z,1.70
2019-01-13T07:56:02.864Z,0.80
2019-01-13T07:58:30.475Z,2.83
2019-01-13T08:00:58.058Z,3.70
2019-01-13T08:03:25.668Z,1.30
2019-01-13T08:05:53.247Z,2.27
2019-01-13T08:08:20.826Z,2.03
2019-01-13T08:10:48.440Z,2.17
2019-01-13T08:13:16.059Z,1.00
2019-01-13T08:15:43.699Z,5.20
2019-01-13T08:18:12.412Z,2.47
2019-01-13T08:20:40.126Z,3.47
2019-01-13T08:23:07.623Z,2.80
2019-01-13T08:25:35.203Z,3.97
2019-01-13T08:28:03.383Z,1.43
2019-01-13T08:30:30.953Z,2.50
2019-01-13T08:32:58.526Z,0.50
2019-01-13T08:35:26.122Z,1.08
2019-01-13T08:37:54.467Z,1.00
2019-01-13T08:40:22.454Z,2.93
2019-01-13T08:42:50.027Z,0.97
2019-01-13T08:45:18.365Z,1.70
2019-01-13T08:47:45.957Z,0.63
2019-01-13T08:52:53.526Z,1.57
2019-01-13T08:55:21.088Z,1.20
2019-01-13T08:57:48.963Z,1.23
2019-01-13T09:00:19.377Z,1.70
2019-01-13T09:02:46.944Z,0.63
2019-01-13T09:05:14.579Z,0.60
2019-01-13T09:07:42.149Z,0.47
2019-01-13T09:10:09.738Z,0.83
2019-01-13T09:12:37.330Z,0.90
2019-01-13T09:15:04.986Z,1.17
2019-01-13T09:17:32.585Z,1.23
2019-01-13T09:20:00.193Z,1.90
2019-01-13T09:22:27.723Z,2.93
2019-01-13T09:24:55.323Z,1.13
2019-01-13T09:27:22.889Z,2.53
2019-01-13T09:29:50.500Z,1.30
2019-01-13T09:32:18.069Z,1.50
2019-01-13T09:34:46.123Z,1.40
2019-01-13T09:37:13.683Z,1.57
2019-01-13T09:39:41.333Z,1.07
2019-01-13T09:42:12.939Z,2.73
2019-01-13T09:44:41.787Z,3.97
2019-01-13T09:47:12.732Z,1.27
2019-01-13T09:49:41.094Z,1.43
2019-01-13T09:52:08.665Z,1.77
2019-01-13T09:54:37.083Z,4.37
2019-01-13T09:57:05.391Z,4.63
2019-01-13T09:59:32.954Z,2.40
2019-01-13T10:02:00.964Z,2.70
2019-01-13T10:04:29.294Z,5.07
2019-01-13T10:06:56.925Z,7.97
2019-01-13T10:09:24.490Z,6.10
2019-01-13T10:11:52.067Z,8.07
2019-01-13T10:14:19.660Z,3.50
2019-01-13T10:16:47.234Z,2.93
2019-01-13T10:19:14.888Z,7.63
2019-01-13T10:21:42.466Z,6.90
2019-01-13T10:24:10.811Z,13.85
2019-01-13T10:26:38.419Z,6.50
2019-01-13T10:29:06.005Z,25.70
2019-01-13T10:31:33.623Z,14.33
2019-01-13T10:34:01.211Z,10.87
2019-01-13T10:36:29.551Z,10.30
2019-01-13T10:38:57.146Z,10.17
2019-01-13T10:41:25.497Z,21.53
2019-01-13T10:43:53.123Z,11.63
2019-01-13T10:46:20.703Z,13.20
2019-01-13T10:48:48.385Z,14.67
2019-01-13T10:51:15.895Z,10.80
2019-01-13T10:53:43.508Z,10.57
2019-01-13T10:56:11.130Z,9.90
2019-01-13T10:58:38.703Z,14.60
2019-01-13T11:01:06.273Z,9.53
2019-01-13T11:03:34.441Z,8.77
2019-01-13T11:06:02.016Z,11.52
2019-01-13T11:08:29.614Z,8.67
2019-01-13T11:10:57.957Z,9.90
2019-01-13T11:13:25.577Z,9.70
2019-01-13T11:15:53.497Z,10.67
2019-01-13T11:18:21.091Z,13.10
2019-01-13T11:20:49.501Z,15.43
2019-01-13T11:23:17.076Z,9.73
2019-01-13T11:25:44.893Z,9.20
2019-01-13T11:28:13.367Z,9.80
2019-01-13T11:30:40.998Z,8.53
2019-01-13T11:33:09.796Z,10.00
2019-01-13T11:35:36.168Z,12.67
2019-01-13T11:38:04.509Z,10.70
2019-01-13T11:40:32.095Z,9.13
2019-01-13T11:43:01.074Z,8.53
2019-01-13T11:45:28.642Z,9.70
2019-01-13T11:47:56.220Z,12.37
2019-01-13T11:50:24.605Z,17.90
2019-01-13T11:52:53.174Z,17.10
2019-01-13T11:55:20.766Z,11.43
2019-01-13T11:57:48.955Z,12.70
2019-01-13T12:00:19.596Z,12.93
2019-01-13T12:02:47.159Z,13.07
2019-01-13T12:05:14.803Z,14.33
2019-01-13T12:07:43.126Z,12.90
2019-01-13T12:10:14.059Z,12.80
2019-01-13T12:12:41.300Z,11.83
2019-01-13T12:15:08.881Z,13.67
2019-01-13T12:17:36.468Z,13.23
2019-01-13T12:20:04.806Z,13.00
2019-01-13T12:22:32.424Z,11.90
2019-01-13T12:25:00.001Z,16.30
2019-01-13T12:27:28.664Z,8.73
2019-01-13T12:29:55.158Z,9.67
2019-01-13T12:32:22.729Z,8.87
2019-01-13T12:34:50.339Z,10.57
2019-01-13T12:37:17.911Z,11.40
2019-01-13T12:39:46.261Z,10.80
2019-01-13T12:42:13.389Z,7.80
2019-01-13T12:44:40.923Z,7.23
2019-01-13T12:47:08.572Z,12.53
2019-01-13T12:49:36.133Z,8.73
2019-01-13T12:52:03.706Z,7.50
2019-01-13T12:54:31.300Z,7.80
2019-01-13T12:56:58.870Z,15.27
2019-01-13T12:59:26.924Z,11.48
2019-01-13T13:01:54.499Z,9.67
2019-01-13T13:04:22.073Z,9.97
2019-01-13T13:06:50.442Z,8.50
2019-01-13T13:09:18.015Z,6.17
2019-01-13T13:11:46.378Z,6.53
2019-01-13T13:14:13.947Z,6.03
2019-01-13T13:16:41.575Z,6.50
2019-01-13T13:19:09.150Z,8.50
2019-01-13T13:21:36.727Z,5.83
2019-01-13T13:24:04.325Z,5.87
2019-01-13T13:26:31.909Z,5.68
2019-01-13T13:28:59.521Z,5.93
2019-01-13T13:31:27.096Z,3.67
2019-01-13T13:33:55.443Z,7.77
2019-01-13T13:36:23.040Z,5.43
2019-01-13T13:38:51.388Z,8.25
2019-01-13T13:41:19.001Z,5.47
2019-01-13T13:43:46.063Z,4.27
2019-01-13T13:46:13.641Z,7.07
2019-01-13T13:48:41.254Z,11.07
2019-01-13T13:51:09.598Z,12.17
2019-01-13T13:53:37.673Z,7.73
2019-01-13T13:56:05.241Z,6.43
2019-01-13T13:58:32.821Z,7.47
2019-01-13T14:01:00.420Z,11.75
2019-01-13T14:03:27.993Z,12.17
2019-01-13T14:05:55.746Z,12.00
2019-01-13T14:08:23.329Z,2.97
2019-01-13T14:10:50.894Z,8.93
2019-01-13T14:13:18.500Z,6.67
2019-01-13T14:15:46.838Z,7.47
2019-01-13T14:18:14.468Z,5.73
2019-01-13T14:20:42.042Z,9.05
2019-01-13T14:23:09.619Z,8.00
2019-01-13T14:25:37.228Z,7.80
2019-01-13T14:28:05.772Z,9.30
2019-01-13T14:30:40.127Z,8.47
2019-01-13T14:33:07.750Z,5.40
2019-01-13T14:35:35.293Z,7.27
2019-01-13T14:38:02.903Z,4.50
2019-01-13T14:40:30.482Z,10.03
2019-01-13T14:42:58.866Z,7.70
2019-01-13T14:45:26.522Z,5.23
2019-01-13T14:47:54.901Z,6.87
2019-01-13T14:50:22.486Z,7.80
2019-01-13T14:52:50.307Z,6.90
2019-01-13T14:55:17.879Z,5.67
2019-01-13T14:57:45.488Z,10.00
2019-01-13T15:00:15.925Z,14.63
2019-01-13T15:02:43.501Z,44.10
2019-01-13T15:05:11.177Z,36.50
2019-01-13T15:07:38.759Z,26.37
2019-01-13T15:10:06.332Z,11.88
2019-01-13T15:12:33.979Z,17.57
2019-01-13T15:15:01.599Z,8.23
2019-01-13T15:17:29.198Z,6.43
2019-01-13T15:19:56.814Z,7.73
2019-01-13T15:22:24.426Z,8.93
2019-01-13T15:24:52.045Z,7.93
2019-01-13T15:27:19.654Z,10.57
2019-01-13T15:29:47.230Z,4.37
2019-01-13T15:32:14.831Z,6.27
2019-01-13T15:34:42.578Z,3.23
2019-01-13T15:37:12.772Z,3.40
2019-01-13T15:39:42.376Z,5.80
2019-01-13T15:42:10.067Z,3.07
2019-01-13T15:44:37.678Z,6.20
2019-01-13T15:47:05.249Z,3.77
2019-01-13T15:49:32.892Z,3.20
2019-01-13T15:52:00.698Z,4.37
2019-01-13T15:54:28.289Z,3.43
2019-01-13T15:56:55.923Z,2.07
2019-01-13T15:59:23.532Z,2.87
2019-01-13T16:01:51.144Z,5.13
2019-01-13T16:04:19.532Z,5.17
2019-01-13T16:06:47.990Z,3.93
2019-01-13T16:09:15.622Z,5.37
2019-01-13T16:11:43.293Z,2.20
2019-01-13T16:14:10.948Z,3.90
2019-01-13T16:16:38.585Z,2.13
2019-01-13T16:19:06.341Z,4.07
2019-01-13T16:21:34.676Z,3.63
2019-01-13T16:24:02.338Z,2.80
2019-01-13T16:26:29.941Z,2.43
2019-01-13T16:28:58.345Z,6.87
2019-01-13T16:31:26.043Z,3.40
2019-01-13T16:33:53.594Z,9.67
2019-01-13T16:36:21.169Z,6.50
2019-01-13T16:38:48.821Z,4.60
2019-01-13T16:41:16.377Z,5.18
2019-01-13T16:43:44.071Z,6.57
2019-01-13T16:46:11.646Z,3.33
2019-01-13T16:48:39.995Z,5.05
2019-01-13T16:51:07.593Z,4.47
2019-01-13T16:53:35.947Z,2.93
2019-01-13T16:56:03.564Z,2.57
2019-01-13T16:58:31.136Z,6.25
2019-01-13T17:00:58.721Z,6.93
2019-01-13T17:03:26.318Z,6.57
2019-01-13T17:05:54.658Z,7.60
2019-01-13T17:08:22.324Z,6.33
2019-01-13T17:10:49.906Z,4.47
2019-01-13T17:13:17.479Z,2.97
2019-01-13T17:15:45.847Z,17.08
2019-01-13T17:18:13.419Z,9.67
2019-01-13T17:20:41.021Z,7.95
2019-01-13T17:23:08.588Z,5.50
2019-01-13T17:25:36.198Z,5.23
2019-01-13T17:28:03.772Z,3.80
2019-01-13T17:30:31.359Z,1.67
2019-01-13T17:32:58.954Z,1.40
2019-01-13T17:35:26.534Z,1.50
2019-01-13T17:37:54.170Z,0.77
2019-01-13T17:40:21.744Z,3.37
2019-01-13T17:42:49.333Z,5.23
2019-01-13T17:45:16.930Z,9.23
2019-01-13T17:47:44.506Z,5.23
2019-01-13T17:50:17.956Z,1.30
2019-01-13T17:52:45.533Z,2.90
2019-01-13T17:55:13.111Z,2.60
2019-01-13T17:57:40.727Z,0.30
2019-01-13T18:00:08.333Z,0.40
2019-01-13T18:02:35.878Z,1.60
2019-01-13T18:05:04.264Z,0.87
2019-01-13T18:07:32.607Z,1.30
2019-01-13T18:10:00.271Z,1.27
2019-01-13T18:12:27.787Z,1.90
2019-01-13T18:14:55.365Z,0.77
2019-01-13T18:17:23.417Z,0.70
2019-01-13T18:19:50.943Z,1.30
2019-01-13T18:22:18.522Z,1.90
2019-01-13T18:24:46.904Z,2.10
2019-01-13T18:27:14.469Z,2.40
2019-01-13T18:29:42.861Z,4.60
2019-01-13T18:32:10.439Z,1.73
2019-01-13T18:34:38.014Z,2.07
2019-01-13T18:37:05.620Z,2.97
2019-01-13T18:39:33.965Z,2.23
2019-01-13T18:42:01.930Z,4.30
2019-01-13T18:44:29.497Z,2.33
2019-01-13T18:46:57.078Z,5.00
2019-01-13T18:49:24.679Z,3.70
2019-01-13T18:51:52.264Z,6.00
2019-01-13T18:54:19.859Z,6.17
2019-01-13T18:56:47.424Z,3.83
2019-01-13T18:59:14.994Z,4.85
2019-01-13T19:01:43.406Z,7.82
2019-01-13T19:04:10.939Z,7.60
2019-01-13T19:06:39.335Z,4.93
2019-01-13T19:09:07.680Z,7.83
2019-01-13T19:11:35.288Z,9.10
2019-01-13T19:14:15.109Z,9.33
2019-01-13T19:16:42.706Z,6.97
2019-01-13T19:19:10.600Z,7.33
2019-01-13T19:21:38.166Z,5.37
2019-01-13T19:24:05.736Z,10.00
2019-01-13T19:26:33.332Z,7.33
2019-01-13T19:29:01.674Z,10.13
2019-01-13T19:31:29.330Z,6.53
2019-01-13T19:33:56.905Z,5.57
2019-01-13T19:36:25.060Z,9.03
2019-01-13T19:38:52.651Z,6.30
2019-01-13T19:41:20.237Z,7.97
2019-01-13T19:43:48.917Z,9.03
2019-01-13T19:46:16.493Z,8.40
2019-01-13T19:48:44.823Z,9.20
2019-01-13T19:51:12.428Z,8.97
2019-01-13T19:53:40.766Z,10.27
2019-01-13T19:56:08.679Z,8.70
2019-01-13T19:58:36.483Z,15.55
2019-01-13T20:01:04.069Z,10.60
2019-01-13T20:03:31.672Z,9.53
2019-01-13T20:05:59.275Z,10.23
2019-01-13T20:08:26.951Z,9.63
2019-01-13T20:10:54.518Z,7.83
2019-01-13T20:13:22.100Z,5.73
2019-01-13T20:15:49.711Z,8.17
2019-01-13T20:18:17.322Z,7.03
2019-01-13T20:20:44.975Z,8.87
2019-01-13T20:23:12.546Z,9.47
2019-01-13T20:25:40.131Z,7.32
2019-01-13T20:28:09.041Z,6.03
2019-01-13T20:30:36.564Z,6.60
2019-01-13T20:33:04.526Z,7.93
2019-01-13T20:35:32.101Z,6.17
2019-01-13T20:37:59.736Z,6.30
2019-01-13T20:40:27.330Z,6.30
2019-01-13T20:42:54.893Z,5.20
2019-01-13T20:45:29.062Z,7.77
2019-01-13T20:47:56.631Z,5.13
2019-01-13T20:50:24.238Z,8.27
2019-01-13T20:52:52.578Z,5.57
2019-01-13T20:55:20.150Z,6.40
2019-01-13T20:57:47.743Z,6.43
2019-01-13T21:00:17.981Z,5.67
2019-01-13T21:02:45.590Z,7.30
2019-01-13T21:05:13.164Z,8.50
2019-01-13T21:07:40.736Z,4.97
2019-01-13T21:10:10.180Z,6.77
2019-01-13T21:12:37.786Z,5.97
2019-01-13T21:15:05.327Z,2.90
2019-01-13T21:17:32.923Z,3.23
2019-01-13T21:20:00.495Z,1.27
2019-01-13T21:22:29.934Z,0.80
2019-01-13T21:24:58.223Z,2.33
2019-01-13T21:27:25.787Z,1.60
2019-01-13T21:29:55.027Z,1.13
2019-01-13T21:32:21.724Z,1.53
2019-01-13T21:34:49.321Z,0.73
2019-01-13T21:37:16.887Z,1.70
2019-01-13T21:39:44.504Z,0.53
2019-01-13T21:42:12.089Z,0.80
2019-01-13T21:44:39.647Z,3.67
2019-01-13T21:47:07.330Z,4.23
2019-01-13T21:49:34.902Z,2.67
2019-01-13T21:52:03.312Z,4.20
2019-01-13T21:54:30.847Z,4.90
2019-01-13T21:56:59.187Z,3.13
2019-01-13T21:59:26.777Z,3.07
2019-01-13T22:01:54.360Z,7.23
2019-01-13T22:04:22.783Z,6.77
2019-01-13T22:06:50.655Z,9.17
2019-01-13T22:09:18.236Z,5.70
2019-01-13T22:11:45.813Z,5.23
2019-01-13T22:14:13.381Z,4.83
2019-01-13T22:16:41.767Z,3.30
2019-01-13T22:19:10.112Z,3.60
2019-01-13T22:21:37.682Z,3.73
2019-01-13T22:24:05.275Z,5.77
2019-01-13T22:26:33.614Z,2.87
2019-01-13T22:29:01.215Z,2.20
2019-01-13T22:31:29.562Z,3.43
2019-01-13T22:33:57.150Z,2.47
2019-01-13T22:36:25.531Z,4.60
2019-01-13T22:38:53.095Z,3.70
2019-01-13T22:41:21.454Z,2.17
2019-01-13T22:43:49.019Z,5.13
2019-01-13T22:46:16.625Z,3.47
2019-01-13T22:48:44.247Z,4.87
2019-01-13T22:51:11.789Z,4.37
2019-01-13T22:53:39.401Z,4.23
2019-01-13T22:56:06.972Z,3.80
2019-01-13T22:58:34.860Z,3.17
2019-01-13T23:01:08.455Z,3.37
2019-01-13T23:03:36.020Z,3.00
2019-01-13T23:06:03.622Z,5.13
2019-01-13T23:08:31.196Z,5.83
2019-01-13T23:10:59.531Z,5.40
2019-01-13T23:13:27.118Z,4.70
2019-01-13T23:15:54.696Z,4.50
2019-01-13T23:18:22.257Z,4.20
2019-01-13T23:20:50.618Z,3.93
2019-01-13T23:23:18.182Z,4.50
2019-01-13T23:25:45.750Z,7.15
2019-01-13T23:28:13.343Z,5.33
2019-01-13T23:30:40.912Z,6.07
2019-01-13T23:33:08.480Z,7.27
2019-01-13T23:35:36.088Z,5.27
2019-01-13T23:38:03.663Z,4.00
2019-01-13T23:40:31.992Z,7.93
2019-01-13T23:42:59.593Z,3.23
2019-01-13T23:45:27.171Z,5.77
2019-01-13T23:47:55.505Z,5.63
2019-01-13T23:50:23.103Z,6.43
2019-01-13T23:52:51.441Z,6.20
2019-01-13T23:55:19.013Z,6.30
2019-01-13T23:57:46.621Z,7.40
